Time;durP1;ratioP1;P1;durP2;ratioP2;P2;SDS_P1;SDS_P2;PMS_P1;PMS_P2;Temp;Humidity;BMP_temperature;BMP_pressure;BME280_temperature;BME280_humidity;BME280_pressure;Samples;Min_cycle;Max_cycle;Signal;HPM_P1;HPM_P2
2022/07/31 00:01:07;;;;;;;7.75;6.32;;;18.60;99.90;;;;;;5051974;28;20457;-81
2022/07/31 00:03:32;;;;;;;7.35;6.55;;;18.60;99.90;;;;;;5053103;28;20031;-80
2022/07/31 00:05:58;;;;;;;8.63;7.22;;;18.60;99.90;;;;;;5050580;28;20734;-80
2022/07/31 00:08:23;;;;;;;11.70;7.95;;;18.60;99.90;;;;;;5051886;28;20040;-81
2022/07/31 00:10:49;;;;;;;7.07;6.38;;;18.60;99.90;;;;;;5050470;28;20114;-80
2022/07/31 00:13:14;;;;;;;9.15;6.97;;;18.60;99.90;;;;;;5050284;28;20020;-80
2022/07/31 00:15:40;;;;;;;8.23;7.45;;;18.50;99.90;;;;;;5050072;28;20039;-83
2022/07/31 00:18:07;;;;;;;8.98;7.20;;;18.50;99.90;;;;;;5050845;28;20024;-81
2022/07/31 00:20:33;;;;;;;7.00;6.35;;;18.50;99.90;;;;;;5052052;28;20021;-80
2022/07/31 00:22:58;;;;;;;7.78;6.65;;;18.50;99.90;;;;;;5050283;28;20079;-80
2022/07/31 00:25:24;;;;;;;7.90;7.10;;;18.40;99.90;;;;;;5050978;28;20397;-80
2022/07/31 00:27:50;;;;;;;8.32;7.38;;;18.40;99.90;;;;;;5050590;28;20028;-88
2022/07/31 00:30:16;;;;;;;13.45;8.20;;;18.40;99.90;;;;;;5050238;28;20090;-82
2022/07/31 00:32:42;;;;;;;7.78;7.07;;;18.40;99.90;;;;;;5049851;28;20114;-84
2022/07/31 00:35:08;;;;;;;9.90;7.35;;;18.40;99.90;;;;;;5049916;28;20615;-79
2022/07/31 00:37:36;;;;;;;8.23;7.53;;;18.30;99.90;;;;;;5049764;28;20555;-79
2022/07/31 00:40:05;;;;;;;8.48;7.55;;;18.30;99.90;;;;;;5051781;28;20013;-85
2022/07/31 00:42:30;;;;;;;9.13;7.30;;;18.30;99.90;;;;;;5051476;28;20024;-80
2022/07/31 00:44:56;;;;;;;7.63;6.93;;;18.30;99.90;;;;;;5050369;28;20104;-80
2022/07/31 00:47:21;;;;;;;7.82;7.00;;;18.30;99.90;;;;;;5048953;28;20029;-82
2022/07/31 00:49:47;;;;;;;8.35;7.53;;;18.30;99.90;;;;;;5050085;28;20032;-81
2022/07/31 00:52:12;;;;;;;7.88;6.78;;;18.30;99.90;;;;;;5050795;28;20031;-83
2022/07/31 00:54:39;;;;;;;10.88;7.20;;;18.20;99.90;;;;;;5050020;28;20060;-83
2022/07/31 00:57:05;;;;;;;9.95;7.32;;;18.20;99.90;;;;;;5049222;28;20040;-80
2022/07/31 00:59:31;;;;;;;8.18;7.40;;;18.20;99.90;;;;;;5051184;28;20021;-81
2022/07/31 01:01:57;;;;;;;8.68;7.75;;;18.20;99.90;;;;;;5049605;28;20045;-80
2022/07/31 01:04:23;;;;;;;8.38;6.65;;;18.10;99.90;;;;;;5050676;28;20021;-80
2022/07/31 01:06:48;;;;;;;8.13;7.32;;;18.10;99.90;;;;;;5049253;28;20397;-80
2022/07/31 01:09:15;;;;;;;7.53;6.53;;;18.20;99.90;;;;;;5051092;28;20040;-85
2022/07/31 01:11:48;;;;;;;8.07;7.03;;;18.10;99.90;;;;;;5049183;28;20469;-80
2022/07/31 01:14:14;;;;;;;11.02;7.45;;;18.10;99.90;;;;;;5050988;28;20020;-86
2022/07/31 01:16:43;;;;;;;10.02;6.90;;;18.10;99.90;;;;;;5048894;28;20423;-79
2022/07/31 01:19:31;;;;;;;7.60;6.78;;;18.10;99.90;;;;;;5049282;28;20029;-82
2022/07/31 01:22:16;;;;;;;7.75;6.95;;;18.00;99.90;;;;;;5050794;28;20029;-80
2022/07/31 01:25:18;;;;;;;11.13;7.63;;;18.00;99.90;;;;;;5049520;28;20410;-87
2022/07/31 01:28:17;;;;;;;5.68;5.20;;;18.00;99.90;;;;;;5049276;28;20444;-78
2022/07/31 01:30:47;;;;;;;7.45;6.68;;;17.90;99.90;;;;;;5050403;28;20374;-87
2022/07/31 01:33:16;;;;;;;7.88;7.07;;;17.90;99.90;;;;;;5049427;28;20116;-84
2022/07/31 01:35:48;;;;;;;7.90;7.10;;;17.90;99.90;;;;;;5049968;28;20524;-83
2022/07/31 01:38:19;;;;;;;10.20;7.35;;;17.90;99.90;;;;;;5049437;28;20608;-79
2022/07/31 01:40:49;;;;;;;8.23;7.43;;;17.80;99.90;;;;;;5049381;28;20031;-80
2022/07/31 01:43:21;;;;;;;7.75;7.03;;;17.90;99.90;;;;;;5049552;28;20037;-80
2022/07/31 01:45:50;;;;;;;8.27;7.47;;;17.90;99.90;;;;;;5050144;28;20025;-80
2022/07/31 01:48:16;;;;;;;8.48;7.68;;;17.80;99.90;;;;;;5050831;28;20037;-82
2022/07/31 01:50:45;;;;;;;9.63;7.68;;;17.80;99.90;;;;;;5049227;28;20028;-81
2022/07/31 01:53:14;;;;;;;9.13;7.80;;;17.80;99.90;;;;;;5048858;28;20028;-80
2022/07/31 01:55:41;;;;;;;10.98;6.90;;;17.80;99.90;;;;;;5049975;28;20469;-80
2022/07/31 01:58:08;;;;;;;8.18;7.30;;;17.80;99.90;;;;;;5050312;28;20033;-86
2022/07/31 02:00:35;;;;;;;8.40;7.57;;;17.80;99.90;;;;;;5053024;28;20029;-79
2022/07/31 02:03:02;;;;;;;7.70;6.80;;;17.80;99.90;;;;;;5052834;28;20464;-80
2022/07/31 02:05:28;;;;;;;7.47;6.57;;;17.80;99.90;;;;;;5052154;28;20028;-81
2022/07/31 02:07:55;;;;;;;10.60;8.55;;;17.80;99.90;;;;;;5054024;28;20585;-79
2022/07/31 02:10:23;;;;;;;9.27;8.32;;;17.80;99.90;;;;;;5052641;28;20110;-84
2022/07/31 02:12:49;;;;;;;9.05;8.15;;;17.80;99.90;;;;;;5052345;28;20036;-80
2022/07/31 02:15:17;;;;;;;10.68;8.07;;;17.80;99.90;;;;;;5052625;28;20032;-80
2022/07/31 02:17:45;;;;;;;9.38;8.48;;;17.70;99.90;;;;;;5053697;28;20415;-80
2022/07/31 02:20:14;;;;;;;9.82;8.82;;;17.70;99.90;;;;;;5052665;28;20064;-80
2022/07/31 02:22:39;;;;;;;9.98;7.80;;;17.70;99.90;;;;;;5053058;28;20487;-81
2022/07/31 02:25:05;;;;;;;10.15;7.47;;;17.70;99.90;;;;;;5054402;28;20021;-80
2022/07/31 02:27:32;;;;;;;8.25;7.45;;;17.70;99.90;;;;;;5053188;28;20032;-81
2022/07/31 02:30:01;;;;;;;9.02;7.88;;;17.70;99.90;;;;;;5053379;28;20025;-85
2022/07/31 02:32:28;;;;;;;10.77;8.30;;;17.70;99.90;;;;;;5053696;28;20119;-79
2022/07/31 02:34:57;;;;;;;10.00;8.43;;;17.70;99.90;;;;;;5054450;28;20027;-81
2022/07/31 02:37:24;;;;;;;9.60;8.60;;;17.60;99.90;;;;;;5051934;28;20453;-79
2022/07/31 02:39:51;;;;;;;9.52;8.52;;;17.70;99.90;;;;;;5053964;28;20057;-79
2022/07/31 02:42:18;;;;;;;9.65;8.55;;;17.60;99.90;;;;;;5057189;28;20033;-78
2022/07/31 02:44:45;;;;;;;13.88;9.55;;;17.60;99.90;;;;;;5056583;28;20060;-79
2022/07/31 02:47:11;;;;;;;12.00;8.45;;;17.60;99.90;;;;;;5058583;28;20047;-79
2022/07/31 02:49:37;;;;;;;8.70;7.80;;;17.60;99.90;;;;;;5056821;28;20033;-79
2022/07/31 02:52:04;;;;;;;8.88;8.07;;;17.60;99.90;;;;;;5057357;28;20028;-82
2022/07/31 02:54:31;;;;;;;15.48;7.68;;;17.60;99.90;;;;;;5054810;28;20029;-81
2022/07/31 02:56:57;;;;;;;8.52;7.72;;;17.60;99.90;;;;;;5051974;28;20040;-80
2022/07/31 02:59:22;;;;;;;9.07;8.27;;;17.60;99.90;;;;;;5053521;28;20470;-85
2022/07/31 03:01:48;;;;;;;10.18;7.65;;;17.60;99.90;;;;;;5051711;28;20120;-82
2022/07/31 03:04:14;;;;;;;10.63;9.18;;;17.60;99.90;;;;;;5052861;28;20365;-84
2022/07/31 03:06:39;;;;;;;8.93;8.02;;;17.60;99.90;;;;;;5050835;28;20035;-79
2022/07/31 03:09:05;;;;;;;11.00;9.63;;;17.60;99.90;;;;;;5051385;28;20120;-79
2022/07/31 03:11:30;;;;;;;9.60;8.63;;;17.60;99.90;;;;;;5052923;28;20027;-85
2022/07/31 03:13:57;;;;;;;10.88;8.85;;;17.50;99.90;;;;;;5052886;28;20115;-79
2022/07/31 03:16:25;;;;;;;10.25;9.25;;;17.60;99.90;;;;;;5052127;28;20458;-81
2022/07/31 03:18:52;;;;;;;10.82;9.80;;;17.50;99.90;;;;;;5052174;28;20023;-85
2022/07/31 03:21:19;;;;;;;10.57;9.23;;;17.50;99.90;;;;;;5052160;28;20103;-81
2022/07/31 03:23:47;;;;;;;16.65;9.32;;;17.50;99.90;;;;;;5051398;28;20048;-84
2022/07/31 03:26:13;;;;;;;10.05;9.00;;;17.50;99.90;;;;;;5050561;28;20017;-79
2022/07/31 03:28:39;;;;;;;10.30;9.02;;;17.50;99.90;;;;;;5052767;28;20078;-79
2022/07/31 03:31:06;;;;;;;12.05;9.93;;;17.40;99.90;;;;;;5052120;28;20029;-79
2022/07/31 03:33:32;;;;;;;9.90;8.82;;;17.40;99.90;;;;;;5052670;28;20413;-80
2022/07/31 03:35:58;;;;;;;10.80;9.05;;;17.40;99.90;;;;;;5050550;28;20056;-82
2022/07/31 03:38:24;;;;;;;10.93;9.60;;;17.40;99.90;;;;;;5051165;28;20120;-79
2022/07/31 03:40:49;;;;;;;12.40;10.23;;;17.40;99.90;;;;;;5052311;28;20112;-80
2022/07/31 03:43:17;;;;;;;10.38;8.60;;;17.40;99.90;;;;;;5052654;28;20029;-83
2022/07/31 03:45:44;;;;;;;10.88;9.77;;;17.40;99.90;;;;;;5051944;28;20513;-81
2022/07/31 03:48:10;;;;;;;10.90;9.80;;;17.40;99.90;;;;;;5050722;28;20040;-78
2022/07/31 03:50:37;;;;;;;11.25;10.05;;;17.40;99.90;;;;;;5052424;28;20060;-84
2022/07/31 03:53:04;;;;;;;10.88;9.60;;;17.40;99.90;;;;;;5051549;28;20021;-78
2022/07/31 03:55:32;;;;;;;12.05;10.35;;;17.40;99.90;;;;;;5051682;28;20082;-79
2022/07/31 03:57:58;;;;;;;11.55;9.75;;;17.40;99.90;;;;;;5067523;28;20033;-79
2022/07/31 04:00:26;;;;;;;11.32;9.27;;;17.40;99.90;;;;;;5051723;28;20024;-82
2022/07/31 04:02:55;;;;;;;12.35;9.38;;;17.40;99.90;;;;;;5050390;28;20025;-80
2022/07/31 04:05:21;;;;;;;12.73;9.60;;;17.40;99.90;;;;;;5050368;28;20162;-79
2022/07/31 04:07:47;;;;;;;10.57;8.98;;;17.40;99.90;;;;;;5051670;28;20036;-79
2022/07/31 04:10:12;;;;;;;12.50;9.73;;;17.40;99.90;;;;;;5050736;28;20024;-80
2022/07/31 04:12:38;;;;;;;11.45;8.90;;;17.50;99.90;;;;;;5050246;28;20036;-82
2022/07/31 04:15:04;;;;;;;12.05;9.38;;;17.50;99.90;;;;;;5050250;28;20029;-79
2022/07/31 04:17:30;;;;;;;15.27;10.15;;;17.50;99.90;;;;;;5050024;28;20040;-80
2022/07/31 04:19:55;;;;;;;11.20;9.70;;;17.50;99.90;;;;;;5066758;28;20033;-80
2022/07/31 04:22:21;;;;;;;11.18;9.05;;;17.50;99.90;;;;;;5051025;28;20021;-82
2022/07/31 04:24:46;;;;;;;10.80;9.73;;;17.50;99.90;;;;;;5050484;28;20408;-80
2022/07/31 04:27:15;;;;;;;13.32;9.43;;;17.50;99.90;;;;;;5050942;28;20060;-81
2022/07/31 04:29:40;;;;;;;10.23;9.07;;;17.60;99.90;;;;;;5050290;28;20098;-80
2022/07/31 04:32:06;;;;;;;11.13;9.07;;;17.60;99.90;;;;;;5049745;28;20453;-79
2022/07/31 04:34:31;;;;;;;12.20;9.88;;;17.60;99.90;;;;;;5049856;28;20021;-81
2022/07/31 04:36:57;;;;;;;12.18;10.75;;;17.60;99.90;;;;;;5050969;28;20040;-79
2022/07/31 04:39:23;;;;;;;12.00;9.88;;;17.60;99.90;;;;;;5051068;28;20489;-79
2022/07/31 04:41:48;;;;;;;11.48;10.32;;;17.70;99.90;;;;;;5049561;28;20771;-79
2022/07/31 04:44:14;;;;;;;13.00;9.82;;;17.70;99.90;;;;;;5051520;28;20487;-81
2022/07/31 04:46:39;;;;;;;11.95;9.88;;;17.70;99.90;;;;;;5050620;28;20025;-79
2022/07/31 04:49:05;;;;;;;11.20;9.45;;;17.80;99.90;;;;;;5051303;28;20473;-80
2022/07/31 04:51:30;;;;;;;10.57;9.35;;;17.80;99.90;;;;;;5050752;28;20021;-81
2022/07/31 04:53:56;;;;;;;10.25;9.20;;;17.80;99.90;;;;;;5049909;28;20033;-79
2022/07/31 04:56:40;;;;;;;11.43;9.07;;;17.80;99.90;;;;;;5048790;28;20029;-80
2022/07/31 04:59:07;;;;;;;9.65;8.68;;;17.90;99.90;;;;;;5051930;28;20032;-81
2022/07/31 05:01:33;;;;;;;9.98;8.70;;;17.90;99.90;;;;;;5050895;28;20173;-79
2022/07/31 05:03:59;;;;;;;11.43;10.18;;;17.90;99.90;;;;;;5049694;28;20031;-79
2022/07/31 05:06:39;;;;;;;8.88;8.05;;;17.90;99.90;;;;;;5048640;28;20550;-84
2022/07/31 05:09:06;;;;;;;11.73;8.55;;;18.00;99.90;;;;;;5050770;28;20065;-80
2022/07/31 05:11:34;;;;;;;10.55;8.30;;;18.10;99.90;;;;;;5049099;28;20024;-79
2022/07/31 05:14:02;;;;;;;8.70;7.63;;;18.10;99.90;;;;;;5051005;28;20025;-82
2022/07/31 05:16:29;;;;;;;10.10;8.02;;;18.10;99.90;;;;;;5048704;28;20059;-81
2022/07/31 05:18:55;;;;;;;8.65;7.75;;;18.20;99.90;;;;;;5051013;28;20027;-79
2022/07/31 05:21:21;;;;;;;9.65;8.10;;;18.20;99.90;;;;;;5050738;28;20063;-84
2022/07/31 05:23:48;;;;;;;12.68;8.45;;;18.20;99.90;;;;;;5051136;28;20450;-80
2022/07/31 05:26:14;;;;;;;9.00;8.02;;;18.20;99.90;;;;;;5048505;28;20021;-79
2022/07/31 05:28:40;;;;;;;9.95;8.25;;;18.30;99.90;;;;;;5050196;28;20021;-83
2022/07/31 05:31:07;;;;;;;8.43;7.43;;;18.40;99.90;;;;;;5050194;28;20414;-82
2022/07/31 05:33:33;;;;;;;8.40;7.60;;;18.40;99.90;;;;;;5050406;28;20041;-87
2022/07/31 05:36:00;;;;;;;8.43;7.63;;;18.40;99.90;;;;;;5049798;28;20029;-83
2022/07/31 05:38:27;;;;;;;8.85;7.85;;;18.50;99.90;;;;;;5050056;28;20032;-79
2022/07/31 05:40:52;;;;;;;7.88;7.18;;;18.50;99.90;;;;;;5049445;28;20108;-82
2022/07/31 05:43:18;;;;;;;10.30;7.55;;;18.40;99.90;;;;;;5050291;28;20119;-82
2022/07/31 05:45:45;;;;;;;8.60;7.55;;;18.40;99.90;;;;;;5051093;28;20036;-81
2022/07/31 05:48:12;;;;;;;7.60;6.80;;;18.50;99.90;;;;;;5051486;28;20029;-80
2022/07/31 05:50:41;;;;;;;7.90;7.10;;;18.50;99.90;;;;;;5049642;28;20381;-80
2022/07/31 05:53:06;;;;;;;7.43;6.72;;;18.60;99.90;;;;;;5050705;28;20113;-83
2022/07/31 05:55:31;;;;;;;8.45;6.18;;;18.70;99.90;;;;;;5049025;28;20428;-80
2022/07/31 05:57:57;;;;;;;7.82;7.05;;;18.80;99.90;;;;;;5049267;28;20036;-78
2022/07/31 06:00:23;;;;;;;9.45;6.65;;;18.80;99.90;;;;;;5052307;28;20032;-80
2022/07/31 06:02:48;;;;;;;6.50;5.90;;;18.90;99.90;;;;;;5053871;28;20028;-79
2022/07/31 06:05:14;;;;;;;8.05;6.78;;;19.00;99.90;;;;;;5050971;28;20021;-80
2022/07/31 06:07:40;;;;;;;6.95;6.25;;;19.10;99.90;;;;;;5050418;28;20535;-80
2022/07/31 06:10:06;;;;;;;10.50;6.53;;;19.20;99.90;;;;;;5050366;28;20021;-86
2022/07/31 06:12:31;;;;;;;8.35;6.45;;;19.30;99.90;;;;;;5048792;28;20044;-80
2022/07/31 06:14:58;;;;;;;6.07;5.43;;;19.40;99.90;;;;;;5050537;28;20564;-78
2022/07/31 06:17:24;;;;;;;6.90;6.10;;;19.50;99.90;;;;;;5050151;28;20021;-80
2022/07/31 06:19:49;;;;;;;9.00;5.60;;;19.70;99.90;;;;;;5050635;28;20020;-85
2022/07/31 06:22:15;;;;;;;12.63;6.30;;;19.80;99.90;;;;;;5051862;28;20048;-80
2022/07/31 06:24:40;;;;;;;6.45;5.75;;;19.90;99.90;;;;;;5052532;28;20032;-81
2022/07/31 06:27:06;;;;;;;7.72;5.25;;;20.10;99.90;;;;;;5048996;28;20029;-87
2022/07/31 06:29:31;;;;;;;6.65;5.35;;;20.20;99.90;;;;;;5049240;28;20016;-80
2022/07/31 06:31:57;;;;;;;5.57;5.05;;;20.40;99.90;;;;;;5050306;28;20571;-80
2022/07/31 06:34:23;;;;;;;7.50;5.50;;;20.50;99.90;;;;;;5048880;28;20369;-83
2022/07/31 06:36:49;;;;;;;7.65;5.78;;;20.60;99.90;;;;;;5048511;28;20021;-81
2022/07/31 06:39:15;;;;;;;8.48;5.15;;;20.70;99.70;;;;;;5050096;28;20051;-80
2022/07/31 06:41:46;;;;;;;6.13;4.90;;;20.80;99.60;;;;;;5048365;28;20462;-82
2022/07/31 06:44:14;;;;;;;6.70;5.20;;;21.00;99.40;;;;;;5049770;28;20040;-82
2022/07/31 06:46:40;;;;;;;6.55;5.50;;;21.20;98.80;;;;;;5052683;28;20025;-81
2022/07/31 06:49:06;;;;;;;10.30;4.80;;;21.20;98.90;;;;;;5052348;28;20039;-82
2022/07/31 06:51:31;;;;;;;6.57;4.55;;;21.40;99.30;;;;;;5052037;28;20021;-80
2022/07/31 06:54:01;;;;;;;5.93;5.03;;;21.40;98.40;;;;;;5053306;28;20064;-79
2022/07/31 06:56:30;;;;;;;7.60;5.05;;;21.50;98.60;;;;;;5051552;28;20509;-82
2022/07/31 06:58:56;;;;;;;6.43;5.57;;;21.60;98.70;;;;;;5053090;28;20029;-82
2022/07/31 07:01:22;;;;;;;5.15;4.65;;;21.70;98.40;;;;;;5051469;28;20086;-82
2022/07/31 07:03:47;;;;;;;5.45;4.53;;;21.80;98.60;;;;;;5051828;28;20465;-82
2022/07/31 07:06:13;;;;;;;5.07;4.50;;;21.90;98.20;;;;;;5051327;28;20029;-81
2022/07/31 07:08:38;;;;;;;5.57;5.07;;;21.90;98.10;;;;;;5053377;28;20036;-80
2022/07/31 07:11:04;;;;;;;5.55;4.90;;;22.00;97.70;;;;;;5054746;28;20028;-81
2022/07/31 07:13:29;;;;;;;5.65;4.60;;;21.90;97.80;;;;;;5051778;28;20067;-80
2022/07/31 07:15:55;;;;;;;6.13;4.63;;;21.90;98.00;;;;;;5052619;28;20029;-82
2022/07/31 07:18:21;;;;;;;6.78;4.97;;;21.90;97.90;;;;;;5051727;28;20025;-86
2022/07/31 07:20:47;;;;;;;5.97;4.72;;;21.90;97.90;;;;;;5053052;28;20025;-87
2022/07/31 07:23:13;;;;;;;8.20;4.82;;;22.00;97.80;;;;;;5052895;28;20104;-81
2022/07/31 07:25:39;;;;;;;8.32;4.88;;;21.90;97.80;;;;;;5051089;28;20452;-85
2022/07/31 07:28:05;;;;;;;5.53;4.60;;;21.90;98.00;;;;;;5051997;28;20033;-82
2022/07/31 07:30:30;;;;;;;7.00;4.53;;;22.00;98.00;;;;;;5051670;28;20035;-80
2022/07/31 07:32:56;;;;;;;7.22;4.63;;;22.00;98.00;;;;;;5050762;28;20029;-80
2022/07/31 07:35:21;;;;;;;7.18;5.10;;;22.10;98.20;;;;;;5052355;28;20024;-80
2022/07/31 07:37:47;;;;;;;7.35;5.25;;;22.20;98.20;;;;;;5052418;28;20028;-81
2022/07/31 07:40:13;;;;;;;5.22;4.32;;;22.30;97.70;;;;;;5050864;28;20021;-81
2022/07/31 07:42:39;;;;;;;9.45;4.95;;;22.40;97.60;;;;;;5052299;28;20032;-81
2022/07/31 07:45:05;;;;;;;5.07;4.28;;;22.50;97.10;;;;;;5051189;28;20458;-86
2022/07/31 07:47:31;;;;;;;6.40;4.60;;;22.40;97.10;;;;;;5051951;28;20033;-85
2022/07/31 07:49:56;;;;;;;4.80;4.18;;;22.40;97.00;;;;;;5052411;28;20079;-81
2022/07/31 07:52:22;;;;;;;6.35;4.32;;;22.40;97.00;;;;;;5050775;28;20063;-80
2022/07/31 07:54:47;;;;;;;6.13;4.38;;;22.40;97.20;;;;;;5052424;28;20025;-81
2022/07/31 07:57:18;;;;;;;7.03;3.72;;;22.40;97.10;;;;;;5050385;28;20100;-80
2022/07/31 07:59:43;;;;;;;7.07;4.45;;;22.50;97.10;;;;;;5051283;28;20553;-81
2022/07/31 08:02:11;;;;;;;7.00;4.03;;;22.60;96.40;;;;;;5050365;28;20029;-82
2022/07/31 08:04:36;;;;;;;4.97;3.90;;;22.60;96.80;;;;;;5052400;28;20017;-81
2022/07/31 08:07:02;;;;;;;5.90;3.78;;;22.80;96.90;;;;;;5051282;28;20476;-80
2022/07/31 08:09:29;;;;;;;4.68;4.00;;;22.90;96.50;;;;;;5051820;28;20115;-80
2022/07/31 08:11:55;;;;;;;5.88;4.45;;;23.20;95.80;;;;;;5050647;28;20029;-81
2022/07/31 08:14:20;;;;;;;8.50;3.95;;;23.30;95.70;;;;;;5050401;28;20032;-85
2022/07/31 08:16:46;;;;;;;3.55;3.13;;;23.50;95.60;;;;;;5049925;28;20036;-84
2022/07/31 08:19:12;;;;;;;7.28;3.78;;;23.60;95.20;;;;;;5052879;28;20032;-81
2022/07/31 08:21:38;;;;;;;3.83;3.15;;;23.70;95.50;;;;;;5051738;28;20480;-83
2022/07/31 08:24:04;;;;;;;6.30;3.83;;;23.80;95.50;;;;;;5052283;28;20017;-81
2022/07/31 08:29:14;;;;;;;5.05;3.55;;;23.90;95.40;;;;;;5052931;28;20047;-81
2022/07/31 08:31:39;;;;;;;4.78;3.42;;;24.00;95.20;;;;;;5050522;28;20028;-86
2022/07/31 08:34:05;;;;;;;5.93;3.40;;;24.00;94.60;;;;;;5050883;28;20025;-83
2022/07/31 08:36:30;;;;;;;7.15;3.50;;;24.10;95.20;;;;;;5050211;28;20017;-84
2022/07/31 08:38:56;;;;;;;4.05;3.13;;;24.20;94.80;;;;;;5049932;28;20028;-80
2022/07/31 08:41:21;;;;;;;7.28;3.50;;;24.30;94.20;;;;;;5051128;28;20041;-82
2022/07/31 08:43:47;;;;;;;6.53;3.50;;;24.40;94.20;;;;;;5051414;28;20384;-79
2022/07/31 08:46:12;;;;;;;8.77;3.70;;;24.50;94.50;;;;;;5049357;28;20487;-84
2022/07/31 08:48:42;;;;;;;4.63;3.63;;;24.60;94.30;;;;;;5050046;28;20021;-80
2022/07/31 08:51:11;;;;;;;7.13;3.58;;;24.60;94.30;;;;;;5050543;28;20037;-84
2022/07/31 08:53:38;;;;;;;4.68;3.40;;;24.70;94.30;;;;;;5051101;28;20025;-82
2022/07/31 08:56:06;;;;;;;4.40;3.58;;;24.90;93.30;;;;;;5050610;28;20052;-81
2022/07/31 08:58:32;;;;;;;4.43;3.20;;;25.00;93.30;;;;;;5051238;28;20461;-85
2022/07/31 09:00:58;;;;;;;4.30;2.90;;;25.00;93.20;;;;;;5050646;28;20070;-80
2022/07/31 09:03:23;;;;;;;4.63;3.45;;;25.10;93.40;;;;;;5049857;28;20120;-81
2022/07/31 09:05:49;;;;;;;4.78;3.42;;;25.20;94.00;;;;;;5050210;28;20029;-84
2022/07/31 09:08:14;;;;;;;9.93;3.72;;;25.40;92.50;;;;;;5050402;28;20132;-81
2022/07/31 09:10:40;;;;;;;4.63;2.95;;;25.50;92.20;;;;;;5049536;28;20021;-81
2022/07/31 09:13:17;;;;;;;6.65;3.30;;;25.50;91.80;;;;;;5049801;28;20033;-84
2022/07/31 09:15:43;;;;;;;6.00;2.95;;;25.60;92.30;;;;;;5050141;28;20044;-80
2022/07/31 09:18:17;;;;;;;6.10;4.07;;;25.70;91.90;;;;;;5054689;28;20035;-83
2022/07/31 09:20:56;;;;;;;4.13;3.30;;;25.70;91.80;;;;;;5055689;28;20020;-80
2022/07/31 09:23:23;;;;;;;5.75;2.50;;;25.80;92.20;;;;;;5050138;28;20028;-80
2022/07/31 09:25:59;;;;;;;3.58;2.95;;;25.90;91.70;;;;;;5049211;28;20021;-82
2022/07/31 09:28:36;;;;;;;2.78;2.47;;;26.00;91.20;;;;;;5049285;28;20029;-83
2022/07/31 09:31:03;;;;;;;3.47;2.67;;;26.10;91.10;;;;;;5050304;28;20743;-81
2022/07/31 09:33:30;;;;;;;5.20;2.88;;;26.20;91.30;;;;;;5049670;28;20053;-85
2022/07/31 09:35:57;;;;;;;4.15;2.60;;;26.30;90.30;;;;;;5041687;28;20009;-86
2022/07/31 09:38:39;;;;;;;3.35;2.53;;;26.40;90.20;;;;;;5050201;28;20037;-83
2022/07/31 09:41:09;;;;;;;;;;;26.40;90.90;;;;;;5049411;28;20025;-79
2022/07/31 09:43:35;;;;;;;3.95;2.83;;;26.50;90.40;;;;;;5049007;28;20310;-83
2022/07/31 09:46:01;;;;;;;4.40;2.38;;;26.50;90.90;;;;;;5048949;28;20064;-78
2022/07/31 09:48:27;;;;;;;5.10;2.25;;;26.50;90.20;;;;;;5049556;28;20450;-81
2022/07/31 09:50:54;;;;;;;2.63;1.70;;;26.40;89.10;;;;;;5050997;28;20048;-84
2022/07/31 09:53:19;;;;;;;5.68;1.70;;;26.40;89.90;;;;;;5050037;28;20021;-81
2022/07/31 09:55:52;;;;;;;3.25;2.25;;;26.60;89.40;;;;;;5048564;28;20350;-83
2022/07/31 09:58:19;;;;;;;4.07;2.17;;;26.70;87.90;;;;;;5048772;28;20074;-83
2022/07/31 10:00:46;;;;;;;4.43;1.65;;;26.70;87.10;;;;;;5049661;28;20021;-84
2022/07/31 10:03:13;;;;;;;3.33;1.52;;;26.70;86.90;;;;;;5049713;28;20394;-85
2022/07/31 10:05:41;;;;;;;3.60;1.77;;;26.70;85.60;;;;;;5049516;28;20587;-82
2022/07/31 10:08:08;;;;;;;3.63;2.00;;;26.70;87.00;;;;;;5048345;28;20100;-84
2022/07/31 10:10:35;;;;;;;4.25;2.15;;;26.70;84.60;;;;;;5050331;28;20529;-85
2022/07/31 10:13:04;;;;;;;6.82;1.80;;;26.80;84.30;;;;;;5050010;28;20040;-86
2022/07/31 10:15:32;;;;;;;2.65;1.88;;;26.70;81.30;;;;;;5047946;28;20057;-83
2022/07/31 10:17:58;;;;;;;3.50;1.83;;;26.70;82.20;;;;;;5048828;28;20036;-83
2022/07/31 10:20:26;;;;;;;3.28;1.45;;;26.70;81.30;;;;;;5052090;28;20103;-85
2022/07/31 10:23:07;;;;;;;7.85;1.73;;;26.70;83.60;;;;;;5054349;28;20025;-85
2022/07/31 10:25:34;;;;;;;2.38;1.25;;;26.80;81.90;;;;;;5052976;28;20013;-85
2022/07/31 10:28:00;;;;;;;3.75;1.15;;;26.80;79.50;;;;;;5053603;28;20033;-85
2022/07/31 10:30:25;;;;;;;2.20;1.13;;;26.90;83.10;;;;;;5052533;28;20025;-85
2022/07/31 10:32:51;;;;;;;3.08;1.13;;;27.10;80.20;;;;;;5051973;28;20357;-86
2022/07/31 10:35:17;;;;;;;2.30;1.50;;;27.20;79.70;;;;;;5052987;28;20021;-86
2022/07/31 10:38:02;;;;;;;3.00;1.42;;;27.10;78.50;;;;;;5053599;28;20029;-82
2022/07/31 10:41:02;;;;;;;3.55;1.55;;;27.20;78.70;;;;;;5052051;28;20025;-84
2022/07/31 10:43:37;;;;;;;4.50;1.40;;;27.40;79.30;;;;;;5052156;28;20133;-83
2022/07/31 10:46:03;;;;;;;1.88;1.15;;;27.50;78.60;;;;;;5052731;28;20032;-85
2022/07/31 10:48:28;;;;;;;3.72;1.30;;;27.70;77.40;;;;;;5053507;28;20037;-82
2022/07/31 10:51:06;;;;;;;5.68;1.55;;;27.80;78.20;;;;;;5053032;28;20063;-85
2022/07/31 10:53:32;;;;;;;2.33;1.55;;;27.90;77.80;;;;;;5053451;28;20545;-86
2022/07/31 10:56:03;;;;;;;2.25;1.08;;;28.00;77.80;;;;;;5051153;28;20067;-85
2022/07/31 10:58:31;;;;;;;1.25;1.00;;;28.10;75.10;;;;;;5053510;28;20021;-84
2022/07/31 11:01:07;;;;;;;2.42;1.20;;;28.20;73.80;;;;;;5052600;28;20029;-85
2022/07/31 11:03:48;;;;;;;2.30;1.48;;;28.20;76.90;;;;;;5049668;28;20024;-84
2022/07/31 11:06:15;;;;;;;1.25;1.10;;;28.40;76.20;;;;;;5046374;28;20023;-81
2022/07/31 11:08:50;;;;;;;4.43;1.30;;;28.40;78.40;;;;;;5045220;28;20378;-84
2022/07/31 11:11:15;;;;;;;2.67;1.08;;;28.50;73.90;;;;;;5038188;28;20103;-82
2022/07/31 11:13:51;;;;;;;4.20;1.10;;;28.50;70.70;;;;;;5045857;28;20029;-80
2022/07/31 11:16:18;;;;;;;1.95;0.68;;;28.40;70.60;;;;;;5037277;28;20090;-79
2022/07/31 11:18:54;;;;;;;1.92;0.70;;;28.40;69.10;;;;;;5041765;28;20033;-79
2022/07/31 11:21:39;;;;;;;2.45;0.93;;;28.40;69.80;;;;;;5041044;28;20514;-79
2022/07/31 11:24:16;;;;;;;2.85;1.17;;;28.50;71.00;;;;;;5046861;28;20051;-80
2022/07/31 11:26:54;;;;;;;1.23;0.88;;;28.50;75.40;;;;;;5044100;28;20021;-78
2022/07/31 11:29:40;;;;;;;3.63;1.50;;;28.70;69.60;;;;;;5051897;28;20557;-79
2022/07/31 11:32:16;;;;;;;8.75;1.20;;;28.90;72.90;;;;;;5049434;28;20029;-79
2022/07/31 11:34:49;;;;;;;1.33;0.80;;;29.10;71.30;;;;;;5047960;28;20029;-80
2022/07/31 11:37:22;;;;;;;2.05;1.10;;;29.00;69.20;;;;;;5038646;28;20025;-79
2022/07/31 11:39:52;;;;;;;1.45;0.85;;;29.10;69.10;;;;;;5044856;28;20577;-79
2022/07/31 11:42:19;;;;;;;2.55;1.30;;;29.00;70.10;;;;;;5042802;28;20468;-79
2022/07/31 11:44:44;;;;;;;2.30;1.08;;;28.90;71.70;;;;;;5044457;28;20020;-80
2022/07/31 11:47:10;;;;;;;1.27;0.80;;;29.00;69.50;;;;;;5046053;28;20390;-79
2022/07/31 11:49:36;;;;;;;2.15;1.00;;;29.10;70.30;;;;;;5049856;28;20039;-79
2022/07/31 11:52:04;;;;;;;1.40;1.05;;;29.20;68.40;;;;;;5047534;28;20031;-79
2022/07/31 11:54:30;;;;;;;3.47;0.75;;;29.30;69.80;;;;;;5037466;28;20029;-79
2022/07/31 11:56:56;;;;;;;1.13;0.77;;;29.40;69.00;;;;;;5046514;28;20017;-79
2022/07/31 11:59:32;;;;;;;3.40;0.80;;;29.50;69.70;;;;;;5039530;28;20029;-79
2022/07/31 12:02:05;;;;;;;2.65;0.98;;;29.60;71.00;;;;;;5046474;28;20457;-78
2022/07/31 12:04:32;;;;;;;1.52;0.98;;;29.70;69.80;;;;;;5038191;28;20025;-80
2022/07/31 12:06:58;;;;;;;1.60;0.80;;;29.80;66.70;;;;;;5044830;28;20034;-79
2022/07/31 12:09:24;;;;;;;2.00;0.90;;;30.00;68.70;;;;;;5049146;28;20025;-79
2022/07/31 12:11:50;;;;;;;0.98;0.60;;;30.10;66.30;;;;;;5048675;28;20049;-78
2022/07/31 12:14:26;;;;;;;1.08;0.75;;;30.10;67.10;;;;;;5045308;28;20436;-77
2022/07/31 12:16:52;;;;;;;1.88;0.90;;;30.20;67.00;;;;;;5040813;28;20036;-80
2022/07/31 12:19:25;;;;;;;4.38;0.90;;;30.20;66.50;;;;;;5043110;28;20041;-80
2022/07/31 12:21:51;;;;;;;1.42;0.70;;;30.40;63.60;;;;;;5044651;28;20120;-83
2022/07/31 12:24:18;;;;;;;1.83;0.80;;;30.40;63.00;;;;;;5037608;28;20623;-81
2022/07/31 12:26:54;;;;;;;0.93;0.50;;;30.40;62.50;;;;;;5040968;28;20128;-77
2022/07/31 12:29:33;;;;;;;3.13;1.25;;;30.30;60.70;;;;;;5040327;28;20033;-80
2022/07/31 12:31:59;;;;;;;1.38;0.77;;;30.20;65.70;;;;;;5047337;28;20087;-79
2022/07/31 12:34:26;;;;;;;1.77;0.80;;;30.20;62.10;;;;;;5047355;28;20029;-77
2022/07/31 12:37:06;;;;;;;5.38;1.00;;;30.10;62.30;;;;;;5044801;28;20021;-79
2022/07/31 12:39:37;;;;;;;1.40;0.70;;;30.10;63.50;;;;;;5038384;28;20056;-79
2022/07/31 12:42:04;;;;;;;8.73;0.80;;;30.30;65.80;;;;;;5043868;28;20021;-83
2022/07/31 12:44:29;;;;;;;1.42;0.60;;;30.40;61.60;;;;;;5039834;28;20045;-77
2022/07/31 12:46:55;;;;;;;1.20;0.60;;;30.50;59.20;;;;;;5041063;28;20519;-78
2022/07/31 12:49:20;;;;;;;1.23;0.50;;;30.50;62.50;;;;;;5046292;28;20020;-78
2022/07/31 12:51:46;;;;;;;3.25;0.52;;;30.50;59.90;;;;;;5043967;28;20052;-79